createdAt,value
2018-09-03T00:02:44.327Z,20.10
2018-09-03T00:03:47.787Z,20.20
2018-09-03T00:04:51.214Z,20.20
2018-09-03T00:05:55.638Z,20.20
2018-09-03T00:06:59.057Z,20.20
2018-09-03T00:08:02.444Z,20.20
2018-09-03T00:09:08.152Z,20.20
2018-09-03T00:10:12.603Z,20.20
2018-09-03T00:11:17.612Z,20.20
2018-09-03T00:12:21.018Z,20.20
2018-09-03T00:13:24.399Z,20.20
2018-09-03T00:14:27.844Z,20.20
2018-09-03T00:15:32.666Z,20.20
2018-09-03T00:16:36.091Z,20.20
2018-09-03T00:17:39.509Z,20.20
2018-09-03T00:18:42.911Z,20.20
2018-09-03T00:19:46.347Z,20.20
2018-09-03T00:20:50.695Z,20.20
2018-09-03T00:21:54.172Z,20.20
2018-09-03T00:22:57.595Z,20.20
2018-09-03T00:24:00.972Z,20.20
2018-09-03T00:25:04.789Z,20.20
2018-09-03T00:26:09.371Z,20.20
2018-09-03T00:27:12.840Z,20.20
2018-09-03T00:28:16.277Z,20.20
2018-09-03T00:29:19.692Z,20.20
2018-09-03T00:30:24.283Z,20.20
2018-09-03T00:31:33.709Z,20.20
2018-09-03T00:32:42.431Z,20.20
2018-09-03T00:33:51.256Z,20.20
2018-09-03T00:35:00.058Z,20.20
2018-09-03T00:36:09.736Z,20.20
2018-09-03T00:37:18.480Z,20.20
2018-09-03T00:38:27.367Z,20.20
2018-09-03T00:39:36.128Z,20.20
2018-09-03T00:40:45.503Z,20.20
2018-09-03T00:41:54.416Z,20.20
2018-09-03T00:43:03.311Z,20.20
2018-09-03T00:44:11.989Z,20.20
2018-09-03T00:46:22.704Z,20.20
2018-09-03T00:47:26.192Z,20.20
2018-09-03T00:48:29.680Z,20.20
2018-09-03T00:49:33.073Z,20.20
2018-09-03T00:50:37.536Z,20.20
2018-09-03T00:51:41.128Z,20.10
2018-09-03T00:52:44.544Z,20.10
2018-09-03T00:53:48.204Z,20.10
2018-09-03T00:54:51.744Z,20.00
2018-09-03T00:55:56.145Z,20.00
2018-09-03T00:56:59.685Z,20.00
2018-09-03T00:58:03.118Z,20.00
2018-09-03T00:59:06.532Z,20.00
2018-09-03T01:00:11.619Z,20.00
2018-09-03T01:01:16.059Z,20.00
2018-09-03T01:02:19.523Z,20.00
2018-09-03T01:03:22.928Z,20.00
2018-09-03T01:04:26.407Z,20.00
2018-09-03T01:05:31.535Z,20.00
2018-09-03T01:06:34.952Z,20.00
2018-09-03T01:07:38.371Z,20.00
2018-09-03T01:08:41.808Z,20.00
2018-09-03T01:09:45.181Z,20.00
2018-09-03T01:10:50.586Z,20.00
2018-09-03T01:11:54.031Z,20.00
2018-09-03T01:12:57.442Z,20.00
2018-09-03T01:14:00.876Z,20.00
2018-09-03T01:15:04.780Z,20.00
2018-09-03T01:16:09.211Z,20.00
2018-09-03T01:17:12.645Z,20.00
2018-09-03T01:18:16.044Z,20.00
2018-09-03T01:19:19.545Z,20.00
2018-09-03T01:20:23.977Z,20.00
2018-09-03T01:21:29.273Z,20.00
2018-09-03T01:22:32.764Z,20.00
2018-09-03T01:23:36.187Z,20.00
2018-09-03T01:24:39.634Z,20.00
2018-09-03T01:25:44.363Z,20.00
2018-09-03T01:26:47.889Z,20.00
2018-09-03T01:27:51.265Z,20.00
2018-09-03T01:28:54.745Z,20.00
2018-09-03T01:29:58.167Z,20.00
2018-09-03T01:31:02.481Z,19.90
2018-09-03T01:32:05.907Z,19.90
2018-09-03T01:33:09.515Z,19.90
2018-09-03T01:34:12.983Z,19.80
2018-09-03T01:35:17.769Z,19.80
2018-09-03T01:36:22.508Z,19.80
2018-09-03T01:37:25.900Z,19.80
2018-09-03T01:38:29.391Z,19.80
2018-09-03T01:39:32.773Z,19.80
2018-09-03T01:40:37.371Z,19.80
2018-09-03T01:41:40.903Z,19.80
2018-09-03T01:42:44.284Z,19.80
2018-09-03T01:43:48.092Z,19.80
2018-09-03T01:44:51.507Z,19.80
2018-09-03T01:45:56.088Z,19.80
2018-09-03T01:46:59.592Z,19.80
2018-09-03T01:48:03.140Z,19.80
2018-09-03T01:49:06.608Z,19.80
2018-09-03T01:50:10.939Z,19.80
2018-09-03T01:51:16.560Z,19.70
2018-09-03T01:52:19.996Z,19.70
2018-09-03T01:53:24.089Z,19.70
2018-09-03T01:54:27.483Z,19.70
2018-09-03T01:55:31.892Z,19.70
2018-09-03T01:56:35.409Z,19.70
2018-09-03T01:57:38.808Z,19.70
2018-09-03T01:58:42.301Z,19.80
2018-09-03T01:59:45.687Z,19.80
2018-09-03T02:00:50.242Z,19.80
2018-09-03T02:01:53.685Z,19.80
2018-09-03T02:02:57.104Z,19.80
2018-09-03T02:04:00.492Z,19.80
2018-09-03T02:05:04.260Z,19.90
2018-09-03T02:06:08.706Z,19.90
2018-09-03T02:07:12.167Z,19.90
2018-09-03T02:08:15.598Z,19.90
2018-09-03T02:09:19.098Z,19.90
2018-09-03T02:10:23.599Z,19.90
2018-09-03T02:11:28.007Z,19.90
2018-09-03T02:12:31.545Z,19.90
2018-09-03T02:13:35.045Z,19.90
2018-09-03T02:14:38.473Z,19.90
2018-09-03T02:15:42.903Z,19.90
2018-09-03T02:16:46.408Z,19.90
2018-09-03T02:17:49.804Z,19.90
2018-09-03T02:18:53.301Z,19.90
2018-09-03T02:19:56.832Z,19.90
2018-09-03T02:21:01.329Z,19.90
2018-09-03T02:22:05.112Z,19.90
2018-09-03T02:23:08.662Z,19.90
2018-09-03T02:24:12.060Z,19.90
2018-09-03T02:25:17.204Z,19.90
2018-09-03T02:26:21.611Z,19.90
2018-09-03T02:27:25.109Z,19.90
2018-09-03T02:28:28.547Z,19.80
2018-09-03T02:29:32.107Z,19.80
2018-09-03T02:30:36.422Z,19.80
2018-09-03T02:31:39.844Z,19.80
2018-09-03T02:32:43.344Z,19.80
2018-09-03T02:33:46.791Z,19.80
2018-09-03T02:34:50.246Z,19.80
2018-09-03T02:35:56.388Z,19.70
2018-09-03T02:36:59.816Z,19.70
2018-09-03T02:38:03.248Z,19.70
2018-09-03T02:39:08.044Z,19.60
2018-09-03T02:40:12.536Z,19.60
2018-09-03T02:41:17.358Z,19.60
2018-09-03T02:42:20.773Z,19.60
2018-09-03T02:43:24.195Z,19.60
2018-09-03T02:44:27.640Z,19.70
2018-09-03T02:45:32.868Z,19.70
2018-09-03T02:46:36.280Z,19.70
2018-09-03T02:47:39.912Z,19.70
2018-09-03T02:48:43.320Z,19.70
2018-09-03T02:49:46.812Z,19.70
2018-09-03T02:50:51.258Z,19.70
2018-09-03T02:51:54.734Z,19.70
2018-09-03T02:52:58.136Z,19.80
2018-09-03T02:54:01.553Z,19.80
2018-09-03T02:55:06.511Z,19.80
2018-09-03T02:56:11.070Z,19.80
2018-09-03T02:57:14.649Z,19.80
2018-09-03T02:58:18.026Z,19.80
2018-09-03T02:59:21.452Z,19.80
2018-09-03T03:00:26.635Z,19.80
2018-09-03T03:01:30.575Z,19.80
2018-09-03T03:02:34.011Z,19.80
2018-09-03T03:03:37.420Z,19.80
2018-09-03T03:04:40.949Z,19.80
2018-09-03T03:05:45.535Z,19.80
2018-09-03T03:06:48.959Z,19.80
2018-09-03T03:07:52.388Z,19.80
2018-09-03T03:08:55.819Z,19.80
2018-09-03T03:09:59.279Z,19.80
2018-09-03T03:11:04.791Z,19.80
2018-09-03T03:12:08.192Z,19.70
2018-09-03T03:13:11.670Z,19.80
2018-09-03T03:14:15.047Z,19.80
2018-09-03T03:15:19.683Z,19.80
2018-09-03T03:16:23.899Z,19.70
2018-09-03T03:17:27.318Z,19.70
2018-09-03T03:18:30.700Z,19.70
2018-09-03T03:19:34.160Z,19.70
2018-09-03T03:20:38.542Z,19.70
2018-09-03T03:21:42.073Z,19.70
2018-09-03T03:22:45.516Z,19.70
2018-09-03T03:23:48.916Z,19.70
2018-09-03T03:24:52.321Z,19.70
2018-09-03T03:25:56.865Z,19.70
2018-09-03T03:27:00.419Z,19.70
2018-09-03T03:28:03.844Z,19.70
2018-09-03T03:29:07.293Z,19.70
2018-09-03T03:30:12.884Z,19.70
2018-09-03T03:31:17.231Z,19.70
2018-09-03T03:32:20.646Z,19.70
2018-09-03T03:33:24.028Z,19.80
2018-09-03T03:34:27.456Z,19.80
2018-09-03T03:35:32.107Z,19.80
2018-09-03T03:36:35.496Z,19.80
2018-09-03T03:37:39.989Z,19.80
2018-09-03T03:38:43.445Z,19.80
2018-09-03T03:39:46.848Z,19.80
2018-09-03T03:40:51.388Z,19.80
2018-09-03T03:41:55.012Z,19.80
2018-09-03T03:42:58.465Z,19.80
2018-09-03T03:44:01.844Z,19.80
2018-09-03T03:45:06.175Z,19.80
2018-09-03T03:46:10.660Z,19.80
2018-09-03T03:47:14.182Z,19.80
2018-09-03T03:48:17.572Z,19.80
2018-09-03T03:49:20.999Z,19.80
2018-09-03T03:50:25.681Z,19.90
2018-09-03T03:51:29.864Z,19.90
2018-09-03T03:52:33.243Z,19.80
2018-09-03T03:53:36.916Z,19.80
2018-09-03T03:54:40.309Z,19.80
2018-09-03T03:55:44.812Z,19.80
2018-09-03T03:56:48.429Z,19.80
2018-09-03T03:57:51.828Z,19.80
2018-09-03T03:58:55.293Z,19.80
2018-09-03T03:59:58.833Z,19.80
2018-09-03T04:01:04.253Z,19.80
2018-09-03T04:02:07.797Z,19.80
2018-09-03T04:03:11.441Z,19.80
2018-09-03T04:04:14.853Z,19.80
2018-09-03T04:05:19.267Z,19.70
2018-09-03T04:06:23.561Z,19.70
2018-09-03T04:07:27.251Z,19.70
2018-09-03T04:08:30.623Z,19.70
2018-09-03T04:09:34.048Z,19.70
2018-09-03T04:10:39.481Z,19.70
2018-09-03T04:11:42.879Z,19.60
2018-09-03T04:12:51.691Z,19.60
2018-09-03T04:13:55.155Z,19.60
2018-09-03T04:14:58.540Z,19.60
2018-09-03T04:16:02.968Z,19.60
2018-09-03T04:17:06.388Z,19.60
2018-09-03T04:18:09.810Z,19.60
2018-09-03T04:19:13.201Z,19.70
2018-09-03T04:20:17.721Z,19.70
2018-09-03T04:21:22.328Z,19.70
2018-09-03T04:22:25.736Z,19.70
2018-09-03T04:23:32.181Z,19.70
2018-09-03T04:24:36.124Z,19.70
2018-09-03T04:25:40.589Z,19.80
2018-09-03T04:26:44.066Z,19.70
2018-09-03T04:27:47.439Z,19.70
2018-09-03T04:28:50.909Z,19.80
2018-09-03T04:29:54.467Z,19.80
2018-09-03T04:30:58.998Z,19.80
2018-09-03T04:32:02.580Z,19.80
2018-09-03T04:33:06.051Z,19.80
2018-09-03T04:34:09.565Z,19.80
2018-09-03T04:35:14.846Z,19.80
2018-09-03T04:36:19.384Z,19.80
2018-09-03T04:37:23.302Z,19.80
2018-09-03T04:38:26.726Z,19.80
2018-09-03T04:39:30.140Z,19.80
2018-09-03T04:40:34.916Z,19.80
2018-09-03T04:41:38.460Z,19.80
2018-09-03T04:42:41.922Z,19.80
2018-09-03T04:43:45.357Z,19.80
2018-09-03T04:44:48.787Z,19.80
2018-09-03T04:45:53.281Z,19.80
2018-09-03T04:46:56.700Z,19.80
2018-09-03T04:48:00.357Z,19.80
2018-09-03T04:49:03.757Z,19.80
2018-09-03T04:50:08.415Z,19.80
2018-09-03T04:51:12.933Z,19.80
2018-09-03T04:52:16.400Z,19.80
2018-09-03T04:53:19.815Z,19.80
2018-09-03T04:54:23.412Z,19.80
2018-09-03T04:55:27.922Z,19.80
2018-09-03T04:56:31.505Z,19.80
2018-09-03T04:57:35.010Z,19.80
2018-09-03T04:58:38.457Z,19.80
2018-09-03T04:59:41.952Z,19.80
2018-09-03T05:00:46.868Z,19.80
2018-09-03T05:01:50.318Z,19.80
2018-09-03T05:02:53.713Z,19.80
2018-09-03T05:03:57.163Z,19.80
2018-09-03T05:05:00.551Z,19.80
2018-09-03T05:06:06.050Z,19.80
2018-09-03T05:07:09.496Z,19.80
2018-09-03T05:08:13.104Z,19.80
2018-09-03T05:09:16.500Z,19.80
2018-09-03T05:10:20.877Z,19.70
2018-09-03T05:11:25.159Z,19.70
2018-09-03T05:12:28.703Z,19.80
2018-09-03T05:13:32.181Z,19.70
2018-09-03T05:14:35.807Z,19.70
2018-09-03T05:15:40.261Z,19.70
2018-09-03T05:16:43.920Z,19.70
2018-09-03T05:17:47.355Z,19.70
2018-09-03T05:18:50.814Z,19.70
2018-09-03T05:19:54.206Z,19.70
2018-09-03T05:20:58.815Z,19.70
2018-09-03T05:22:02.236Z,19.70
2018-09-03T05:23:06.046Z,19.70
2018-09-03T05:24:09.435Z,19.70
2018-09-03T05:25:13.924Z,19.70
2018-09-03T05:26:18.492Z,19.70
2018-09-03T05:27:22.008Z,19.70
2018-09-03T05:28:25.391Z,19.70
2018-09-03T05:29:28.856Z,19.70
2018-09-03T05:30:33.403Z,19.70
2018-09-03T05:31:36.844Z,19.70
2018-09-03T05:32:40.364Z,19.70
2018-09-03T05:33:43.832Z,19.70
2018-09-03T05:34:47.249Z,19.70
2018-09-03T05:35:52.014Z,19.70
2018-09-03T05:36:55.505Z,19.70
2018-09-03T05:37:58.908Z,19.70
2018-09-03T05:39:02.311Z,19.70
2018-09-03T05:40:06.873Z,19.70
2018-09-03T05:41:11.489Z,19.70
2018-09-03T05:42:14.941Z,19.70
2018-09-03T05:43:18.416Z,19.70
2018-09-03T05:44:21.771Z,19.70
2018-09-03T05:45:26.364Z,19.70
2018-09-03T05:46:30.252Z,19.70
2018-09-03T05:47:33.836Z,19.70
2018-09-03T05:48:37.210Z,19.70
2018-09-03T05:49:40.646Z,19.70
2018-09-03T05:50:45.270Z,19.70
2018-09-03T05:51:48.747Z,19.70
2018-09-03T05:52:52.463Z,19.70
2018-09-03T05:54:02.361Z,19.70
2018-09-03T05:55:06.820Z,19.70
2018-09-03T05:56:11.499Z,19.70
2018-09-03T05:57:15.003Z,19.70
2018-09-03T05:58:18.550Z,19.70
2018-09-03T05:59:21.935Z,19.80
2018-09-03T06:00:26.419Z,19.80
2018-09-03T06:01:30.192Z,19.80
2018-09-03T06:02:33.602Z,19.80
2018-09-03T06:03:37.003Z,19.80
2018-09-03T06:04:40.572Z,19.80
2018-09-03T06:05:44.933Z,19.80
2018-09-03T06:06:48.363Z,19.80
2018-09-03T06:07:51.856Z,19.80
2018-09-03T06:08:55.247Z,19.80
2018-09-03T06:09:58.627Z,19.80
2018-09-03T06:11:03.293Z,19.80
2018-09-03T06:12:06.821Z,19.90
2018-09-03T06:13:10.245Z,19.90
2018-09-03T06:14:13.688Z,19.90
2018-09-03T06:15:18.288Z,19.90
2018-09-03T06:16:23.137Z,19.90
2018-09-03T06:17:26.528Z,19.90
2018-09-03T06:18:30.048Z,19.90
2018-09-03T06:19:33.464Z,19.90
2018-09-03T06:20:38.400Z,19.90
2018-09-03T06:21:41.812Z,19.90
2018-09-03T06:22:45.264Z,20.00
2018-09-03T06:23:48.669Z,20.00
2018-09-03T06:24:52.089Z,20.00
2018-09-03T06:25:56.528Z,20.00
2018-09-03T06:27:00.196Z,20.00
2018-09-03T06:28:03.587Z,20.00
2018-09-03T06:29:07.080Z,20.10
2018-09-03T06:30:12.195Z,20.10
2018-09-03T06:31:16.935Z,20.10
2018-09-03T06:32:20.328Z,20.10
2018-09-03T06:33:23.884Z,20.10
2018-09-03T06:34:27.332Z,20.10
2018-09-03T06:35:31.712Z,20.10
2018-09-03T06:36:35.148Z,20.20
2018-09-03T06:37:38.640Z,20.20
2018-09-03T06:38:42.126Z,20.20
2018-09-03T06:39:45.641Z,20.10
2018-09-03T06:40:50.087Z,20.20
2018-09-03T06:41:53.594Z,20.20
2018-09-03T06:42:56.987Z,20.20
2018-09-03T06:44:00.511Z,20.20
2018-09-03T06:45:04.207Z,20.30
2018-09-03T06:46:08.728Z,20.30
2018-09-03T06:47:12.272Z,20.30
2018-09-03T06:48:15.706Z,20.30
2018-09-03T06:49:19.153Z,20.30
2018-09-03T06:50:24.267Z,20.30
2018-09-03T06:51:28.724Z,20.30
2018-09-03T06:52:32.253Z,20.30
2018-09-03T06:53:35.722Z,20.30
2018-09-03T06:54:39.197Z,20.30
2018-09-03T06:55:43.780Z,20.30
2018-09-03T06:56:47.223Z,20.30
2018-09-03T06:57:50.637Z,20.40
2018-09-03T06:58:54.117Z,20.40
2018-09-03T06:59:57.624Z,20.40
2018-09-03T07:01:02.415Z,20.30
2018-09-03T07:02:06.432Z,20.30
2018-09-03T07:03:10.008Z,20.40
2018-09-03T07:04:13.391Z,20.40
2018-09-03T07:05:17.763Z,20.40
2018-09-03T07:06:22.239Z,20.40
2018-09-03T07:07:25.734Z,20.40
2018-09-03T07:08:29.124Z,20.40
2018-09-03T07:09:32.608Z,20.40
2018-09-03T07:10:37.070Z,20.40
2018-09-03T07:11:40.536Z,20.40
2018-09-03T07:12:43.924Z,20.40
2018-09-03T07:13:47.456Z,20.40
2018-09-03T07:14:50.913Z,20.40
2018-09-03T07:15:55.324Z,20.50
2018-09-03T07:16:58.723Z,20.50
2018-09-03T07:18:02.437Z,20.50
2018-09-03T07:19:05.854Z,20.50
2018-09-03T07:20:10.350Z,20.50
2018-09-03T07:21:14.908Z,20.50
2018-09-03T07:22:18.416Z,20.60
2018-09-03T07:23:21.812Z,20.60
2018-09-03T07:24:25.248Z,20.60
2018-09-03T07:25:29.801Z,20.60
2018-09-03T07:26:33.348Z,20.60
2018-09-03T07:27:36.748Z,20.60
2018-09-03T07:28:40.305Z,20.60
2018-09-03T07:29:44.559Z,20.60
2018-09-03T07:30:49.529Z,20.60
2018-09-03T07:31:52.995Z,20.60
2018-09-03T07:32:56.417Z,20.70
2018-09-03T07:33:59.808Z,20.70
2018-09-03T07:35:04.048Z,20.70
2018-09-03T07:36:08.797Z,20.70
2018-09-03T07:37:12.348Z,20.60
2018-09-03T07:38:15.785Z,20.60
2018-09-03T07:39:19.184Z,20.60
2018-09-03T07:40:23.707Z,20.60
2018-09-03T07:41:28.223Z,20.60
2018-09-03T07:42:31.669Z,20.60
2018-09-03T07:43:35.208Z,20.60
2018-09-03T07:44:38.609Z,20.60
2018-09-03T07:45:43.425Z,20.60
2018-09-03T07:46:46.833Z,20.70
2018-09-03T07:47:50.319Z,20.60
2018-09-03T07:48:53.709Z,20.70
2018-09-03T07:49:57.153Z,20.70
2018-09-03T07:51:02.093Z,20.70
2018-09-03T07:52:05.632Z,20.70
2018-09-03T07:53:09.081Z,20.60
2018-09-03T07:54:12.580Z,20.60
2018-09-03T07:55:19.062Z,20.60
2018-09-03T07:56:23.607Z,20.60
2018-09-03T07:57:27.523Z,20.60
2018-09-03T07:58:30.925Z,20.60
2018-09-03T07:59:34.369Z,20.50
2018-09-03T08:00:38.887Z,20.50
2018-09-03T08:01:42.432Z,20.60
2018-09-03T08:02:45.995Z,20.60
2018-09-03T08:03:49.584Z,20.60
2018-09-03T08:04:52.976Z,20.70
2018-09-03T08:05:59.016Z,20.70
2018-09-03T08:07:02.446Z,20.70
2018-09-03T08:08:06.409Z,20.70
2018-09-03T08:09:11.112Z,20.70
2018-09-03T08:10:15.527Z,20.70
2018-09-03T08:11:20.097Z,20.70
2018-09-03T08:12:23.512Z,20.80
2018-09-03T08:13:42.317Z,20.80
2018-09-03T08:14:45.723Z,20.80
2018-09-03T08:15:50.125Z,20.80
2018-09-03T08:16:53.552Z,20.80
2018-09-03T08:17:57.076Z,20.80
2018-09-03T08:19:00.524Z,20.80
2018-09-03T08:20:04.839Z,20.70
2018-09-03T08:21:09.219Z,20.70
2018-09-03T08:22:12.712Z,20.70
2018-09-03T08:23:16.197Z,20.70
2018-09-03T08:24:19.593Z,20.70
2018-09-03T08:25:24.606Z,20.70
2018-09-03T08:26:28.972Z,20.70
2018-09-03T08:27:32.497Z,20.70
2018-09-03T08:28:35.895Z,20.80
2018-09-03T08:29:39.288Z,20.80
2018-09-03T08:30:44.001Z,20.80
2018-09-03T08:31:47.396Z,20.90
2018-09-03T08:32:50.821Z,20.90
2018-09-03T08:33:54.355Z,21.00
2018-09-03T08:34:57.723Z,21.00
2018-09-03T08:36:02.387Z,21.10
2018-09-03T08:37:06.439Z,21.10
2018-09-03T08:38:09.887Z,21.10
2018-09-03T08:39:13.268Z,21.10
2018-09-03T08:40:17.692Z,21.10
2018-09-03T08:41:22.471Z,21.10
2018-09-03T08:42:25.908Z,21.10
2018-09-03T08:43:29.304Z,21.10
2018-09-03T08:44:32.700Z,21.10
2018-09-03T08:45:38.137Z,21.10
2018-09-03T08:46:41.560Z,21.00
2018-09-03T08:47:45.004Z,21.00
2018-09-03T08:48:48.432Z,21.00
2018-09-03T08:49:51.893Z,20.90
2018-09-03T08:50:56.557Z,20.90
2018-09-03T08:52:00.101Z,20.90
2018-09-03T08:53:03.508Z,20.90
2018-09-03T08:54:06.925Z,20.90
2018-09-03T08:55:11.422Z,20.80
2018-09-03T08:56:15.908Z,20.80
2018-09-03T08:57:19.404Z,20.90
2018-09-03T08:58:22.800Z,20.80
2018-09-03T08:59:26.206Z,20.80
2018-09-03T09:00:30.560Z,20.70
2018-09-03T09:01:34.004Z,20.70
2018-09-03T09:02:37.424Z,20.60
2018-09-03T09:03:43.131Z,20.60
2018-09-03T09:04:46.549Z,20.60
2018-09-03T09:05:51.170Z,20.60
2018-09-03T09:06:54.593Z,20.60
2018-09-03T09:07:58.110Z,20.60
2018-09-03T09:09:01.604Z,20.70
2018-09-03T09:10:07.038Z,20.70
2018-09-03T09:11:11.551Z,20.70
2018-09-03T09:12:15.011Z,20.80
2018-09-03T09:13:19.533Z,20.80
2018-09-03T09:14:22.965Z,20.80
2018-09-03T09:15:28.214Z,20.80
2018-09-03T09:16:31.832Z,20.80
2018-09-03T09:17:35.571Z,20.80
2018-09-03T09:18:39.035Z,20.80
2018-09-03T09:19:42.548Z,20.80
2018-09-03T09:20:47.270Z,20.80
2018-09-03T09:21:50.779Z,20.80
2018-09-03T09:22:54.195Z,20.80
2018-09-03T09:23:57.712Z,20.80
2018-09-03T09:25:01.146Z,20.80
2018-09-03T09:26:06.462Z,20.80
2018-09-03T09:27:09.892Z,20.80
2018-09-03T09:28:13.320Z,20.70
2018-09-03T09:29:16.934Z,20.70
2018-09-03T09:30:22.411Z,20.70
2018-09-03T09:31:27.672Z,20.70
2018-09-03T09:32:31.093Z,20.70
2018-09-03T09:33:34.525Z,20.70
2018-09-03T09:34:37.948Z,20.70
2018-09-03T09:35:42.035Z,20.60
2018-09-03T09:36:45.515Z,20.60
2018-09-03T09:37:48.933Z,20.60
2018-09-03T09:38:52.345Z,20.60
2018-09-03T09:39:55.844Z,20.60
2018-09-03T09:41:00.336Z,20.60
2018-09-03T09:42:03.872Z,20.60
2018-09-03T09:43:07.449Z,20.60
2018-09-03T09:44:10.948Z,20.70
2018-09-03T09:45:15.533Z,20.70
2018-09-03T09:46:20.019Z,20.70
2018-09-03T09:47:23.449Z,20.70
2018-09-03T09:48:26.925Z,20.80
2018-09-03T09:49:30.482Z,20.80
2018-09-03T09:50:34.748Z,20.90
2018-09-03T09:51:38.244Z,20.90
2018-09-03T09:52:41.761Z,21.00
2018-09-03T09:53:45.176Z,21.10
2018-09-03T09:54:48.589Z,21.10
2018-09-03T09:55:53.468Z,21.20
2018-09-03T09:56:56.908Z,21.30
2018-09-03T09:58:00.291Z,21.40
2018-09-03T09:59:03.680Z,21.40
2018-09-03T10:00:10.405Z,21.50
2018-09-03T10:01:19.937Z,21.60
2018-09-03T10:02:23.379Z,21.60
2018-09-03T10:03:26.760Z,21.60
2018-09-03T10:04:30.266Z,21.60
2018-09-03T10:05:34.798Z,21.60
2018-09-03T10:06:38.265Z,21.60
2018-09-03T10:07:41.664Z,21.60
2018-09-03T10:08:45.043Z,21.60
2018-09-03T10:09:48.481Z,21.50
2018-09-03T10:10:52.952Z,21.50
2018-09-03T10:11:56.430Z,21.50
2018-09-03T10:12:59.812Z,21.50
2018-09-03T10:14:03.244Z,21.40
2018-09-03T10:15:08.372Z,21.40
2018-09-03T10:16:12.952Z,21.30
2018-09-03T10:17:16.416Z,21.30
2018-09-03T10:18:20.079Z,21.30
2018-09-03T10:19:23.505Z,21.20
2018-09-03T10:20:28.059Z,21.30
2018-09-03T10:21:32.700Z,21.30
2018-09-03T10:22:36.104Z,21.30
2018-09-03T10:23:39.497Z,21.30
2018-09-03T10:24:42.989Z,21.30
2018-09-03T10:25:47.579Z,21.40
2018-09-03T10:26:51.118Z,21.30
2018-09-03T10:27:54.513Z,21.30
2018-09-03T10:28:57.965Z,21.30
2018-09-03T10:30:01.377Z,21.30
2018-09-03T10:31:05.864Z,21.30
2018-09-03T10:32:09.296Z,21.30
2018-09-03T10:33:12.716Z,21.20
2018-09-03T10:34:16.116Z,21.20
2018-09-03T10:35:20.531Z,21.30
2018-09-03T10:36:24.851Z,21.40
2018-09-03T10:37:28.304Z,21.30
2018-09-03T10:38:31.713Z,21.40
2018-09-03T10:39:35.120Z,21.40
2018-09-03T10:40:39.699Z,21.50
2018-09-03T10:41:43.180Z,21.50
2018-09-03T10:42:46.592Z,21.50
2018-09-03T10:43:50.062Z,21.50
2018-09-03T10:44:54.002Z,21.50
2018-09-03T10:45:59.115Z,21.60
2018-09-03T10:47:02.580Z,21.70
2018-09-03T10:48:05.971Z,21.70
2018-09-03T10:49:09.395Z,21.80
2018-09-03T10:50:13.944Z,21.90
2018-09-03T10:51:18.435Z,21.90
2018-09-03T10:52:21.852Z,21.90
2018-09-03T10:53:25.292Z,21.90
2018-09-03T10:54:28.724Z,21.90
2018-09-03T10:55:33.502Z,22.00
2018-09-03T10:56:37.147Z,21.90
2018-09-03T10:57:40.580Z,21.90
2018-09-03T10:58:44.000Z,21.90
2018-09-03T10:59:47.532Z,21.90
2018-09-03T11:00:52.491Z,21.90
2018-09-03T11:01:55.932Z,21.90
2018-09-03T11:02:59.549Z,22.00
2018-09-03T11:04:03.080Z,21.90
2018-09-03T11:05:07.530Z,21.90
2018-09-03T11:06:12.053Z,21.90
2018-09-03T11:07:15.461Z,22.00
2018-09-03T11:08:18.923Z,22.10
2018-09-03T11:09:22.367Z,22.10
2018-09-03T11:10:26.999Z,22.20
2018-09-03T11:11:30.800Z,22.20
2018-09-03T11:12:34.250Z,22.30
2018-09-03T11:13:37.662Z,22.30
2018-09-03T11:14:41.112Z,22.40
2018-09-03T11:15:45.495Z,22.30
2018-09-03T11:16:48.915Z,22.40
2018-09-03T11:17:52.321Z,22.30
2018-09-03T11:18:55.807Z,22.30
2018-09-03T11:20:01.434Z,22.20
2018-09-03T11:21:06.045Z,22.20
2018-09-03T11:22:09.435Z,22.20
2018-09-03T11:23:12.892Z,22.10
2018-09-03T11:24:16.283Z,22.10
2018-09-03T11:25:21.786Z,22.10
2018-09-03T11:26:26.043Z,22.10
2018-09-03T11:27:29.479Z,22.10
2018-09-03T11:28:33.007Z,22.10
2018-09-03T11:29:36.399Z,22.10
2018-09-03T11:30:41.542Z,22.20
2018-09-03T11:31:44.947Z,22.20
2018-09-03T11:32:53.660Z,22.20
2018-09-03T11:33:57.113Z,22.20
2018-09-03T11:35:00.603Z,22.30
2018-09-03T11:36:05.153Z,22.30
2018-09-03T11:37:08.916Z,22.30
2018-09-03T11:38:12.332Z,22.30
2018-09-03T11:39:15.745Z,22.30
2018-09-03T11:40:21.126Z,22.30
2018-09-03T11:41:25.211Z,22.30
2018-09-03T11:42:28.657Z,22.40
2018-09-03T11:43:32.098Z,22.40
2018-09-03T11:44:35.476Z,22.40
2018-09-03T11:45:39.965Z,22.30
2018-09-03T11:46:43.416Z,22.30
2018-09-03T11:47:47.485Z,22.40
2018-09-03T11:48:50.870Z,22.40
2018-09-03T11:49:54.453Z,22.30
2018-09-03T11:50:59.444Z,22.30
2018-09-03T11:52:02.936Z,22.30
2018-09-03T11:53:06.381Z,22.30
2018-09-03T11:54:09.873Z,22.30
2018-09-03T11:55:14.625Z,22.30
2018-09-03T11:56:19.047Z,22.30
2018-09-03T11:57:22.549Z,22.30
2018-09-03T11:58:25.989Z,22.40
2018-09-03T11:59:29.477Z,22.40
2018-09-03T12:00:34.073Z,22.40
2018-09-03T12:01:37.596Z,22.50
2018-09-03T12:02:41.026Z,22.50
2018-09-03T12:03:44.488Z,22.50
2018-09-03T12:04:47.907Z,22.50
2018-09-03T12:05:52.409Z,22.50
2018-09-03T12:06:55.813Z,22.50
2018-09-03T12:07:59.239Z,22.50
2018-09-03T12:09:02.743Z,22.50
2018-09-03T12:10:07.350Z,22.60
2018-09-03T12:11:11.892Z,22.60
2018-09-03T12:12:15.316Z,22.60
2018-09-03T12:13:18.736Z,22.60
2018-09-03T12:14:26.303Z,22.60
2018-09-03T12:15:34.942Z,22.60
2018-09-03T12:16:38.428Z,22.50
2018-09-03T12:17:41.829Z,22.60
2018-09-03T12:18:45.674Z,22.50
2018-09-03T12:19:49.108Z,22.60
2018-09-03T12:20:54.299Z,22.50
2018-09-03T12:21:57.765Z,22.60
2018-09-03T12:23:01.158Z,22.50
2018-09-03T12:24:04.552Z,22.50
2018-09-03T12:25:09.431Z,22.50
2018-09-03T12:26:13.898Z,22.50
2018-09-03T12:27:17.328Z,22.50
2018-09-03T12:28:20.737Z,22.60
2018-09-03T12:29:24.153Z,22.60
2018-09-03T12:30:28.921Z,22.60
2018-09-03T12:31:33.165Z,22.60
2018-09-03T12:32:36.938Z,22.60
2018-09-03T12:33:40.482Z,22.60
2018-09-03T12:34:43.909Z,22.70
2018-09-03T12:35:48.573Z,22.60
2018-09-03T12:36:52.006Z,22.60
2018-09-03T12:37:55.585Z,22.60
2018-09-03T12:38:58.894Z,22.60
2018-09-03T12:40:02.407Z,22.60
2018-09-03T12:41:07.201Z,22.60
2018-09-03T12:42:10.616Z,22.60
2018-09-03T12:43:14.760Z,22.50
2018-09-03T12:44:18.271Z,22.50
2018-09-03T12:45:27.707Z,22.50
2018-09-03T12:46:31.289Z,22.50
2018-09-03T12:47:34.712Z,22.50
2018-09-03T12:48:38.083Z,22.50
2018-09-03T12:49:41.464Z,22.50
2018-09-03T12:50:46.057Z,22.50
2018-09-03T12:52:59.178Z,22.60
2018-09-03T12:54:02.755Z,22.60
2018-09-03T12:55:07.049Z,22.60
2018-09-03T12:56:11.493Z,22.60
2018-09-03T12:57:14.973Z,22.60
2018-09-03T12:58:18.490Z,22.60
2018-09-03T12:59:21.891Z,22.60
2018-09-03T13:00:26.363Z,22.60
2018-09-03T13:01:30.220Z,22.60
2018-09-03T13:02:39.411Z,22.60
2018-09-03T13:03:37.069Z,22.60
2018-09-03T13:04:40.439Z,22.60
2018-09-03T13:05:44.994Z,22.80
2018-09-03T13:06:48.423Z,22.80
2018-09-03T13:07:51.907Z,22.80
2018-09-03T13:08:55.295Z,22.90
2018-09-03T13:09:58.711Z,22.90
2018-09-03T13:11:03.208Z,22.90
2018-09-03T13:12:06.635Z,22.90
2018-09-03T13:13:10.043Z,22.90
2018-09-03T13:14:13.475Z,22.90
2018-09-03T13:15:18.069Z,22.90
2018-09-03T13:16:22.474Z,22.90
2018-09-03T13:17:25.867Z,22.90
2018-09-03T13:18:29.368Z,22.90
2018-09-03T13:19:32.811Z,22.90
2018-09-03T13:20:37.225Z,23.00
2018-09-03T13:21:40.708Z,23.00
2018-09-03T13:22:44.124Z,23.00
2018-09-03T13:23:47.580Z,23.00
2018-09-03T13:24:50.964Z,23.00
2018-09-03T13:25:55.237Z,23.00
2018-09-03T13:26:58.745Z,23.00
2018-09-03T13:28:02.231Z,23.00
2018-09-03T13:29:05.772Z,23.00
2018-09-03T13:30:10.895Z,23.00
2018-09-03T13:31:16.903Z,23.10
2018-09-03T13:32:20.359Z,23.10
2018-09-03T13:33:23.757Z,23.10
2018-09-03T13:34:27.304Z,23.10
2018-09-03T13:35:31.889Z,23.10
2018-09-03T13:36:35.351Z,23.10
2018-09-03T13:37:38.749Z,23.10
2018-09-03T13:38:42.180Z,23.10
2018-09-03T13:39:45.600Z,23.10
2018-09-03T13:40:50.665Z,23.10
2018-09-03T13:41:54.121Z,23.20
2018-09-03T13:42:57.540Z,23.30
2018-09-03T13:44:00.981Z,23.20
2018-09-03T13:45:04.848Z,23.20
2018-09-03T13:46:09.258Z,23.20
2018-09-03T13:47:12.761Z,23.20
2018-09-03T13:48:16.214Z,23.20